Time;durP1;ratioP1;P1;durP2;ratioP2;P2;SDS_P1;SDS_P2;PMS_P1;PMS_P2;Temp;Humidity;BMP_temperature;BMP_pressure;BME280_temperature;BME280_humidity;BME280_pressure;Samples;Min_cycle;Max_cycle;Signal;HPM_P1;HPM_P2
2021/03/19 00:00:07;;;;;;;10.10;6.50;;;;;;;1.59;89.21;99636.13;1756224;81;21161;-69
2021/03/19 00:02:38;;;;;;;5.97;4.72;;;;;;;1.60;89.14;99633.08;1736988;82;21115;-68
2021/03/19 00:05:12;;;;;;;9.13;6.83;;;;;;;1.59;89.15;99628.78;1736715;82;21125;-69
2021/03/19 00:07:50;;;;;;;7.12;5.70;;;;;;;1.61;89.17;99633.48;1756451;81;21507;-70
2021/03/19 00:10:20;;;;;;;10.28;7.22;;;;;;;1.58;89.11;99631.78;1736546;81;21114;-69
2021/03/19 00:12:49;;;;;;;9.55;6.97;;;;;;;1.55;89.13;99630.53;1756646;81;21121;-69
2021/03/19 00:15:21;;;;;;;9.40;6.70;;;;;;;1.51;89.20;99620.19;1782963;79;21142;-70
2021/03/19 00:17:48;;;;;;;11.12;7.80;;;;;;;1.51;89.33;99618.44;1756694;81;21094;-71
2021/03/19 00:20:18;;;;;;;13.00;8.38;;;;;;;1.52;89.35;99618.88;1735539;81;21192;-70
2021/03/19 00:22:45;;;;;;;10.43;7.67;;;;;;;1.51;89.28;99616.30;1750012;82;21135;-70
2021/03/19 00:25:13;;;;;;;10.82;7.33;;;;;;;1.48;89.37;99625.41;1757838;80;21521;-69
2021/03/19 00:27:41;;;;;;;12.55;7.85;;;;;;;1.48;89.50;99625.41;1786942;80;21146;-70
2021/03/19 00:30:11;;;;;;;10.95;7.70;;;;;;;1.48;89.61;99624.11;1725024;83;21123;-70
2021/03/19 00:32:39;;;;;;;11.85;8.35;;;;;;;1.45;89.64;99623.27;1732945;81;22040;-70
2021/03/19 00:35:08;;;;;;;8.93;6.65;;;;;;;1.46;89.74;99624.11;1787167;79;21152;-70
2021/03/19 00:37:36;;;;;;;10.90;7.42;;;;;;;1.49;89.72;99624.52;1770147;79;21118;-70
2021/03/19 00:40:09;;;;;;;11.97;7.17;;;;;;;1.51;89.72;99625.38;1726163;82;21107;-69
2021/03/19 00:42:37;;;;;;;9.93;6.70;;;;;;;1.51;89.84;99630.56;1726280;82;21562;-69
2021/03/19 00:45:07;;;;;;;10.53;7.72;;;;;;;1.50;89.66;99627.56;1724891;83;22324;-70
2021/03/19 00:47:34;;;;;;;11.35;8.38;;;;;;;1.47;89.66;99627.12;1757999;81;21142;-69
2021/03/19 00:50:08;;;;;;;7.37;5.12;;;;;;;1.46;89.54;99622.81;1757995;81;21162;-70
2021/03/19 00:52:37;;;;;;;11.05;8.00;;;;;;;1.48;89.39;99622.81;1758126;81;22269;-69
2021/03/19 00:55:07;;;;;;;11.93;7.87;;;;;;;1.49;89.54;99624.52;1756700;78;21296;-69
2021/03/19 00:57:35;;;;;;;11.55;7.58;;;;;;;1.49;89.54;99624.08;1779313;80;21358;-68
2021/03/19 01:00:07;;;;;;;10.30;7.55;;;;;;;1.49;89.52;99623.23;1757888;80;21599;-68
2021/03/19 01:02:34;;;;;;;12.85;8.53;;;;;;;1.46;89.49;99617.63;1771121;80;21124;-68
2021/03/19 01:05:08;;;;;;;13.05;8.18;;;;;;;1.45;89.34;99619.37;1735928;80;21092;-71
2021/03/19 01:07:37;;;;;;;12.05;9.00;;;;;;;1.43;89.30;99615.92;1789323;79;21125;-71
2021/03/19 01:10:11;;;;;;;10.05;6.85;;;;;;;1.39;89.20;99612.06;1766974;80;21895;-71
2021/03/19 01:12:38;;;;;;;11.68;7.40;;;;;;;1.34;89.26;99609.52;1758022;80;21168;-71
2021/03/19 01:15:09;;;;;;;13.25;7.67;;;;;;;1.31;89.36;99605.66;1757838;80;21119;-70
2021/03/19 01:17:37;;;;;;;9.58;6.42;;;;;;;1.30;89.36;99608.25;1758116;80;21104;-72
2021/03/19 01:20:10;;;;;;;8.95;6.45;;;;;;;1.28;89.20;99608.25;1758028;80;21548;-71
2021/03/19 01:22:37;;;;;;;8.98;6.20;;;;;;;1.24;89.28;99609.14;1758148;80;21364;-70
2021/03/19 01:25:07;;;;;;;10.20;7.20;;;;;;;1.17;89.29;99615.24;1776686;80;21150;-70
2021/03/19 01:27:35;;;;;;;10.60;7.40;;;;;;;1.11;89.42;99612.72;1786815;80;21490;-70
2021/03/19 01:30:06;;;;;;;11.55;7.92;;;;;;;1.08;89.58;99617.91;1787185;79;21114;-70
2021/03/19 01:32:34;;;;;;;12.93;8.68;;;;;;;1.08;89.56;99620.50;1787316;80;21118;-70
2021/03/19 01:35:04;;;;;;;12.47;7.60;;;;;;;1.05;89.56;99617.05;1787132;79;21368;-70
2021/03/19 01:37:32;;;;;;;12.07;7.90;;;;;;;1.03;89.72;99622.67;1787219;79;21145;-69
2021/03/19 01:39:59;;;;;;;14.13;9.45;;;;;;;1.02;89.88;99619.67;1784404;80;21118;-70
2021/03/19 01:42:27;;;;;;;14.00;9.35;;;;;;;1.00;89.89;99617.52;1773294;80;21140;-69
2021/03/19 01:45:28;;;;;;;12.95;9.10;;;;;;;1.00;89.94;99625.74;1765310;81;21527;-69
2021/03/19 01:48:51;;;;;;;12.23;8.63;;;;;;;0.99;89.91;99621.41;1674788;85;22070;-69
2021/03/19 01:52:17;;;;;;;11.50;7.50;;;;;;;0.98;89.85;99620.55;1753995;81;21597;-69
2021/03/19 01:55:41;;;;;;;11.85;8.15;;;;;;;0.97;90.08;99620.59;1749209;81;21122;-70
2021/03/19 01:59:06;;;;;;;12.03;8.28;;;;;;;0.96;90.08;99622.30;1760238;81;21174;-70
2021/03/19 02:02:29;;;;;;;11.18;7.30;;;;;;;0.96;90.02;99628.77;1754583;81;21067;-68
2021/03/19 02:05:53;;;;;;;13.28;9.25;;;;;;;0.94;89.91;99631.81;1749479;81;21376;-69
2021/03/19 02:09:17;;;;;;;10.50;7.72;;;;;;;0.92;90.08;99630.98;1765691;81;21154;-70
2021/03/19 02:12:40;;;;;;;12.13;8.38;;;;;;;0.89;90.18;99630.98;1765215;81;21087;-70
2021/03/19 02:16:03;;;;;;;13.55;9.05;;;;;;;0.88;90.13;99631.87;1754121;81;21117;-69
2021/03/19 02:19:26;;;;;;;9.80;6.75;;;;;;;0.85;90.04;99639.64;1752201;81;21154;-69
2021/03/19 02:22:52;;;;;;;9.20;6.47;;;;;;;0.81;90.00;99633.63;1753398;81;21129;-70
2021/03/19 02:26:14;;;;;;;14.55;8.60;;;;;;;0.81;90.20;99640.55;1757822;80;21733;-70
2021/03/19 02:29:38;;;;;;;13.28;8.85;;;;;;;0.81;90.12;99643.14;1750920;81;21139;-70
2021/03/19 02:32:12;;;;;;;10.00;5.87;;;;;;;0.79;90.24;99647.47;1788576;80;21091;-71
2021/03/19 02:35:09;;;;;;;15.72;9.50;;;;;;;0.78;90.24;99651.80;1771145;80;21650;-70
2021/03/19 02:37:37;;;;;;;13.13;8.78;;;;;;;0.77;90.27;99647.47;1769257;80;21370;-70
2021/03/19 02:40:19;;;;;;;14.85;9.48;;;;;;;0.77;90.28;99652.65;1785484;80;21559;-69
2021/03/19 02:42:46;;;;;;;12.43;7.65;;;;;;;0.78;90.28;99654.39;1775051;80;21146;-70
2021/03/19 02:45:19;;;;;;;11.22;7.87;;;;;;;0.75;90.38;99655.68;1788651;80;21925;-70
2021/03/19 02:47:46;;;;;;;14.25;9.15;;;;;;;0.76;90.46;99660.42;1758757;80;21091;-69
2021/03/19 02:50:14;;;;;;;14.50;9.63;;;;;;;0.75;90.58;99661.30;1788487;80;21277;-68
2021/03/19 02:52:43;;;;;;;16.27;10.08;;;;;;;0.74;90.62;99663.05;1788610;80;21107;-69
2021/03/19 02:55:15;;;;;;;10.32;6.90;;;;;;;0.74;90.60;99661.75;1785138;80;21107;-69
2021/03/19 02:57:43;;;;;;;10.85;6.95;;;;;;;0.74;90.56;99667.38;1747719;81;21107;-69
2021/03/19 03:00:16;;;;;;;13.08;7.53;;;;;;;0.75;90.53;99663.90;1727452;81;21120;-71
2021/03/19 03:02:45;;;;;;;10.88;7.40;;;;;;;0.74;90.64;99660.45;1752707;81;21575;-69
2021/03/19 03:05:15;;;;;;;14.87;9.33;;;;;;;0.75;90.65;99669.08;1757371;81;21134;-69
2021/03/19 03:07:42;;;;;;;12.68;7.65;;;;;;;0.75;90.62;99672.97;1751650;80;21599;-70
2021/03/19 03:10:13;;;;;;;13.15;9.25;;;;;;;0.73;90.61;99669.08;1741932;81;21210;-70
2021/03/19 03:12:41;;;;;;;14.10;9.93;;;;;;;0.74;90.66;99671.27;1757583;80;21123;-69
2021/03/19 03:15:15;;;;;;;12.60;8.68;;;;;;;0.75;90.54;99672.53;1757431;80;21370;-70
2021/03/19 03:17:43;;;;;;;12.50;8.55;;;;;;;0.74;90.53;99672.55;1745030;81;21151;-69
2021/03/19 03:20:16;;;;;;;16.75;10.23;;;;;;;0.73;90.54;99676.00;1743196;81;21124;-70
2021/03/19 03:22:44;;;;;;;11.50;7.62;;;;;;;0.73;90.38;99681.19;1727396;81;21108;-69
2021/03/19 03:25:13;;;;;;;16.35;10.40;;;;;;;0.69;90.52;99676.88;1734306;81;21937;-68
2021/03/19 03:27:40;;;;;;;16.52;9.63;;;;;;;0.67;90.47;99678.61;1733563;82;21377;-69
2021/03/19 03:30:13;;;;;;;13.95;8.80;;;;;;;0.66;90.49;99683.38;1734799;82;21130;-69
2021/03/19 03:32:40;;;;;;;11.80;7.80;;;;;;;0.67;90.44;99685.09;1711339;82;21153;-71
2021/03/19 03:35:09;;;;;;;11.28;7.40;;;;;;;0.66;90.49;99685.97;1707071;82;21130;-70
2021/03/19 03:37:37;;;;;;;13.72;8.60;;;;;;;0.66;90.50;99684.67;1707297;82;21137;-71
2021/03/19 03:40:08;;;;;;;11.30;7.37;;;;;;;0.64;90.46;99687.26;1723776;82;22294;-70
2021/03/19 03:42:35;;;;;;;14.07;8.30;;;;;;;0.63;90.42;99681.22;1735166;82;21134;-70
2021/03/19 03:45:06;;;;;;;8.65;6.33;;;;;;;0.66;90.42;99689.41;1720019;82;21074;-68
2021/03/19 03:47:33;;;;;;;11.95;8.13;;;;;;;0.66;90.34;99687.27;1732097;82;21094;-69
2021/03/19 03:50:02;;;;;;;12.73;8.00;;;;;;;0.62;90.39;99689.88;1718712;82;21632;-69
2021/03/19 03:52:30;;;;;;;11.80;8.20;;;;;;;0.62;90.50;99686.40;1716636;82;22337;-69
2021/03/19 03:54:57;;;;;;;16.80;10.32;;;;;;;0.58;90.49;99687.30;1729906;82;21554;-67
2021/03/19 03:57:25;;;;;;;13.88;8.95;;;;;;;0.57;90.52;99682.53;1736439;80;21103;-68
2021/03/19 03:59:53;;;;;;;14.85;7.65;;;;;;;0.58;90.62;99682.97;1747360;81;21102;-67
2021/03/19 04:02:24;;;;;;;12.35;8.65;;;;;;;0.59;90.55;99689.02;1746856;81;21557;-66
2021/03/19 04:04:52;;;;;;;13.05;8.80;;;;;;;0.56;90.60;99684.70;1736578;81;21370;-66
2021/03/19 04:07:19;;;;;;;14.75;9.25;;;;;;;0.53;90.61;99687.32;1754517;81;21189;-67
2021/03/19 04:09:51;;;;;;;13.83;9.43;;;;;;;0.52;90.69;99690.76;1765397;81;21118;-67
2021/03/19 04:14:19;;;;;;;14.83;9.43;;;;;;;0.53;90.66;99687.32;1747331;79;23162;-67
2021/03/19 04:16:47;;;;;;;11.28;8.05;;;;;;;0.50;90.77;99687.31;1702361;83;21159;-68
2021/03/19 04:19:15;;;;;;;15.23;9.23;;;;;;;0.50;90.72;99680.83;1710838;83;21725;-68
2021/03/19 04:21:42;;;;;;;13.75;8.88;;;;;;;0.48;90.67;99681.27;1714281;83;21175;-68
2021/03/19 04:24:10;;;;;;;13.22;8.78;;;;;;;0.46;90.87;99684.33;1712962;80;21115;-62
2021/03/19 04:26:38;;;;;;;11.83;7.15;;;;;;;0.47;90.91;99687.33;1712478;83;21192;-62
2021/03/19 04:29:06;;;;;;;9.33;6.80;;;;;;;0.48;90.89;99692.07;1712902;83;21218;-62
2021/03/19 04:31:34;;;;;;;9.95;6.80;;;;;;;0.49;90.96;99688.19;1713237;83;21375;-62
2021/03/19 04:34:02;;;;;;;13.80;8.48;;;;;;;0.49;91.09;99693.38;1711893;83;21247;-62
2021/03/19 04:36:49;;;;;;;16.17;9.85;;;;;;;0.50;91.06;99695.52;1693387;83;21171;-62
2021/03/19 04:39:22;;;;;;;15.60;9.25;;;;;;;0.50;90.95;99694.23;1714009;83;21196;-60
2021/03/19 04:41:53;;;;;;;15.20;9.80;;;;;;;0.50;91.10;99697.67;1705432;83;21663;-62
2021/03/19 04:44:24;;;;;;;14.53;8.98;;;;;;;0.51;91.08;99694.23;1708728;83;21348;-61
2021/03/19 04:46:53;;;;;;;13.15;8.23;;;;;;;0.52;91.00;99693.35;1713122;83;21195;-62
2021/03/19 04:49:23;;;;;;;14.58;9.63;;;;;;;0.49;90.86;99697.26;1713750;83;21163;-62
2021/03/19 04:51:51;;;;;;;12.15;8.53;;;;;;;0.47;90.87;99708.05;1697755;83;21175;-61
2021/03/19 04:54:19;;;;;;;15.48;10.38;;;;;;;0.45;90.84;99699.86;1707389;83;21718;-63
2021/03/19 04:56:46;;;;;;;16.07;10.35;;;;;;;0.44;91.03;99702.89;1690804;83;28060;-62
2021/03/19 04:59:14;;;;;;;14.68;9.10;;;;;;;0.44;90.97;99705.48;1675998;84;21217;-62
2021/03/19 05:01:55;;;;;;;16.23;10.68;;;;;;;0.43;91.10;99701.16;1677866;85;21133;-63
2021/03/19 05:04:23;;;;;;;17.48;10.32;;;;;;;0.45;91.05;99702.02;1671276;85;21298;-63
2021/03/19 05:06:59;;;;;;;16.42;10.82;;;;;;;0.46;91.10;99710.23;1672648;85;21631;-61
2021/03/19 05:09:24;;;;;;;16.82;10.00;;;;;;;0.47;91.13;99708.05;1670994;85;22027;-63
2021/03/19 05:11:52;;;;;;;22.17;11.75;;;;;;;0.48;91.17;99709.77;1673483;81;21684;-67
2021/03/19 05:14:20;;;;;;;17.32;10.08;;;;;;;0.51;91.22;99711.52;1662131;84;21214;-69
2021/03/19 05:16:49;;;;;;;16.60;10.18;;;;;;;0.54;91.36;99709.76;1684099;85;22333;-69
2021/03/19 05:19:17;;;;;;;14.95;9.53;;;;;;;0.56;91.29;99707.17;1680305;85;21178;-70
2021/03/19 05:21:45;;;;;;;13.78;9.33;;;;;;;0.60;91.33;99711.05;1647782;86;21370;-71
2021/03/19 05:24:13;;;;;;;15.50;9.80;;;;;;;0.59;91.10;99710.59;1680222;85;21235;-69
2021/03/19 05:26:41;;;;;;;16.27;9.63;;;;;;;0.60;91.02;99707.16;1682224;85;21188;-69
2021/03/19 05:29:10;;;;;;;16.20;10.50;;;;;;;0.62;91.09;99713.20;1647119;86;21217;-70
2021/03/19 05:31:40;;;;;;;16.07;9.63;;;;;;;0.62;91.07;99710.61;1680367;85;21213;-70
2021/03/19 05:34:08;;;;;;;14.30;8.68;;;;;;;0.63;91.07;99712.32;1680092;85;21387;-71
2021/03/19 05:36:35;;;;;;;15.88;9.40;;;;;;;0.68;91.22;99718.78;1646396;87;21229;-70
2021/03/19 05:39:04;;;;;;;14.07;8.70;;;;;;;0.71;91.21;99712.28;1679781;85;21165;-71
2021/03/19 05:41:35;;;;;;;11.28;7.42;;;;;;;0.75;90.98;99716.59;1653447;82;21631;-62
2021/03/19 05:44:10;;;;;;;;;;;;;;;0.79;90.91;99723.50;1728860;83;21426;-63
2021/03/19 05:46:50;;;;;;;16.97;10.43;;;;;;;0.83;90.98;99719.17;1727877;83;21390;-63
2021/03/19 05:49:24;;;;;;;12.70;8.60;;;;;;;0.86;90.90;99725.63;1710721;83;21203;-62
2021/03/19 05:51:59;;;;;;;14.43;9.03;;;;;;;0.88;90.73;99726.94;1723049;82;21207;-62
2021/03/19 05:54:36;;;;;;;13.55;8.55;;;;;;;0.90;90.50;99730.35;1721212;83;21652;-62
2021/03/19 05:57:15;;;;;;;13.83;8.68;;;;;;;0.89;90.37;99729.50;1720063;83;33162;-62
2021/03/19 05:59:51;;;;;;;9.50;6.05;;;;;;;0.94;90.37;99734.22;1724881;83;21372;-63
2021/03/19 06:02:27;;;;;;;11.38;8.13;;;;;;;0.96;90.37;99741.56;1721940;83;21190;-62
2021/03/19 06:05:10;;;;;;;12.10;7.78;;;;;;;1.00;90.37;99735.95;1687515;84;21606;-64
2021/03/19 06:07:50;;;;;;;11.50;8.03;;;;;;;1.05;90.22;99741.52;1717856;83;21202;-63
2021/03/19 06:10:40;;;;;;;12.03;7.00;;;;;;;1.07;89.89;99740.67;1693790;80;21640;-72
2021/03/19 06:13:25;;;;;;;10.05;7.42;;;;;;;1.03;89.52;99744.55;1633120;86;21412;-73
2021/03/19 06:16:26;;;;;;;9.53;7.20;;;;;;;1.02;89.54;99749.33;1621648;87;21274;-70
2021/03/19 06:19:33;;;;;;;13.10;7.80;;;;;;;1.10;89.48;99754.91;1821618;78;22870;-72
2021/03/19 06:22:08;;;;;;;12.65;7.47;;;;;;;1.04;89.57;99754.08;1717120;82;21639;-70
2021/03/19 06:24:38;;;;;;;12.93;9.08;;;;;;;1.04;89.33;99759.27;1748455;81;21434;-71
2021/03/19 06:27:35;;;;;;;12.37;7.95;;;;;;;1.01;89.27;99757.99;1720747;81;21411;-65
2021/03/19 06:30:12;;;;;;;11.70;7.37;;;;;;;1.03;89.17;99760.11;1740085;81;21147;-65
2021/03/19 06:32:39;;;;;;;10.78;7.67;;;;;;;1.02;89.10;99762.30;1759008;81;21183;-64
2021/03/19 06:35:16;;;;;;;10.48;7.25;;;;;;;1.05;89.38;99772.64;1718307;82;21193;-64
2021/03/19 06:37:49;;;;;;;11.73;7.80;;;;;;;1.04;89.35;99767.48;1725996;82;21418;-65
2021/03/19 06:40:38;;;;;;;12.85;9.20;;;;;;;1.08;89.38;99772.20;1701746;81;21594;-70
2021/03/19 06:43:24;;;;;;;12.80;8.50;;;;;;;1.08;88.97;99776.09;1702305;82;21184;-71
2021/03/19 06:46:13;;;;;;;13.95;9.55;;;;;;;1.05;88.73;99775.23;1728880;81;21549;-68
2021/03/19 06:48:46;;;;;;;13.05;8.30;;;;;;;1.08;88.96;99774.80;1726059;81;21188;-68
2021/03/19 06:51:34;;;;;;;15.45;10.93;;;;;;;1.11;88.91;99774.81;1730738;82;21897;-68
2021/03/19 06:54:15;;;;;;;15.40;9.80;;;;;;;1.14;88.90;99779.53;1730501;81;21644;-69
2021/03/19 06:57:03;;;;;;;17.40;10.72;;;;;;;1.15;88.75;99770.90;1711430;80;29434;-67
2021/03/19 06:59:50;;;;;;;14.80;9.28;;;;;;;1.21;88.82;99774.73;1677959;84;21284;-66
2021/03/19 07:02:38;;;;;;;19.73;11.57;;;;;;;1.26;88.87;99770.83;1702167;82;21650;-67
2021/03/19 07:05:39;;;;;;;12.37;8.40;;;;;;;1.33;88.95;99775.11;1712427;83;21268;-67
2021/03/19 07:08:34;;;;;;;13.43;8.38;;;;;;;1.38;88.86;99769.89;1741237;82;21213;-69
2021/03/19 07:11:29;;;;;;;12.33;7.78;;;;;;;1.45;88.77;99781.55;1710617;79;21254;-69
2021/03/19 07:14:38;;;;;;;17.30;11.22;;;;;;;1.49;88.89;99775.03;1711841;83;21255;-68
2021/03/19 07:17:52;;;;;;;17.75;11.43;;;;;;;1.58;88.87;99779.73;1713268;83;21668;-70
2021/03/19 07:20:56;;;;;;;13.95;9.20;;;;;;;1.63;88.09;99775.81;1689566;83;21337;-68
2021/03/19 07:24:21;;;;;;;12.75;8.43;;;;;;;1.71;88.15;99779.67;1715565;82;21704;-68
2021/03/19 07:27:41;;;;;;;16.55;9.98;;;;;;;1.77;87.90;99784.39;1673124;81;21691;-69
2021/03/19 07:30:53;;;;;;;12.45;8.33;;;;;;;1.85;88.23;99790.38;1675838;83;21520;-67
2021/03/19 07:33:53;;;;;;;16.17;10.38;;;;;;;1.91;87.93;99780.81;1665692;85;21174;-68
2021/03/19 07:37:05;;;;;;;15.60;10.10;;;;;;;2.01;87.42;99792.88;1681241;85;22197;-67
2021/03/19 07:40:30;;;;;;;14.57;9.37;;;;;;;2.02;86.38;99794.58;1782708;79;22691;-69
2021/03/19 07:43:16;;;;;;;14.53;9.40;;;;;;;1.96;86.50;99793.34;1738170;81;21654;-69
2021/03/19 07:46:24;;;;;;;15.95;10.88;;;;;;;1.99;87.05;99789.42;1738788;81;21377;-70
2021/03/19 07:49:30;;;;;;;15.95;10.90;;;;;;;2.02;86.92;99791.98;1726331;82;21667;-69
2021/03/19 07:52:29;;;;;;;12.55;8.75;;;;;;;2.05;87.03;99795.87;1726608;82;21152;-68
2021/03/19 07:55:39;;;;;;;14.98;10.10;;;;;;;2.10;86.93;99791.50;1733659;82;21239;-69
2021/03/19 07:58:36;;;;;;;17.75;11.18;;;;;;;2.12;86.89;99796.25;1672867;83;23437;-70
2021/03/19 08:01:47;;;;;;;16.00;8.85;;;;;;;2.17;86.84;99794.47;1683585;84;22176;-69
2021/03/19 08:04:57;;;;;;;15.98;9.93;;;;;;;2.22;86.61;99792.69;1687433;84;21181;-70
2021/03/19 08:08:22;;;;;;;17.62;10.98;;;;;;;2.27;86.47;99801.30;1675525;84;21208;-69
2021/03/19 08:11:38;;;;;;;18.15;11.63;;;;;;;2.26;86.20;99796.14;1671717;83;21156;-69
2021/03/19 08:14:53;;;;;;;18.50;12.05;;;;;;;2.25;86.17;99805.64;1649525;83;21189;-69
2021/03/19 08:18:09;;;;;;;16.10;10.13;;;;;;;2.25;85.86;99802.19;1674375;83;21183;-69
2021/03/19 08:20:59;;;;;;;17.23;11.10;;;;;;;2.27;85.90;99801.30;1674362;83;21661;-69
2021/03/19 08:24:04;;;;;;;15.00;10.05;;;;;;;2.27;85.69;99802.59;1668264;83;21618;-69
2021/03/19 08:26:43;;;;;;;16.65;10.90;;;;;;;2.26;85.46;99809.98;1678414;83;21222;-69
2021/03/19 08:29:22;;;;;;;15.68;11.15;;;;;;;2.18;85.05;99803.97;1685646;83;21586;-69
2021/03/19 08:32:12;;;;;;;16.65;10.43;;;;;;;2.13;85.18;99802.30;1670589;85;22253;-69
2021/03/19 08:35:20;;;;;;;18.15;12.07;;;;;;;2.11;85.44;99810.09;1649232;83;21184;-69
2021/03/19 08:38:08;;;;;;;17.37;11.18;;;;;;;2.13;85.96;99801.86;1682956;83;21309;-69
2021/03/19 08:41:02;;;;;;;15.15;10.10;;;;;;;2.17;85.69;99807.46;1683381;83;21230;-69
2021/03/19 08:43:55;;;;;;;17.30;10.95;;;;;;;2.22;86.00;99806.98;1684504;84;21227;-69
2021/03/19 08:46:43;;;;;;;15.98;10.70;;;;;;;2.30;86.01;99811.69;1695204;83;21393;-69
2021/03/19 08:49:25;;;;;;;14.53;10.90;;;;;;;2.34;85.93;99817.70;1704432;82;21199;-69
2021/03/19 08:51:57;;;;;;;12.88;9.68;;;;;;;2.39;85.86;99818.96;1706026;83;21130;-68
2021/03/19 08:54:29;;;;;;;14.58;9.55;;;;;;;2.42;85.67;99809.86;1702041;83;21201;-68
2021/03/19 08:57:15;;;;;;;13.32;8.98;;;;;;;2.41;85.09;99812.02;1665743;83;29821;-69
2021/03/19 08:59:47;;;;;;;12.13;9.05;;;;;;;2.40;85.29;99814.20;1683155;85;22360;-69
2021/03/19 09:02:35;;;;;;;13.45;9.08;;;;;;;2.40;85.44;99816.80;1683330;85;22243;-69
2021/03/19 09:05:27;;;;;;;17.35;11.33;;;;;;;2.37;85.08;99821.59;1683348;85;21213;-69
2021/03/19 09:08:22;;;;;;;14.28;9.43;;;;;;;2.37;85.37;99820.70;1697900;83;21145;-69
2021/03/19 09:10:58;;;;;;;14.60;9.98;;;;;;;2.43;85.43;99821.97;1707595;83;21718;-69
2021/03/19 09:13:27;;;;;;;13.88;9.95;;;;;;;2.49;85.48;99812.38;1704130;83;21277;-69
2021/03/19 09:15:56;;;;;;;16.25;11.53;;;;;;;2.56;85.50;99818.39;1711066;83;21237;-68
2021/03/19 09:18:46;;;;;;;14.28;9.88;;;;;;;2.64;85.69;99815.70;1709366;83;21189;-68
2021/03/19 09:21:36;;;;;;;16.32;10.60;;;;;;;2.76;85.79;99814.71;1703918;83;21429;-69
2021/03/19 09:24:19;;;;;;;17.45;10.75;;;;;;;2.84;84.89;99815.06;1694610;83;21231;-69
2021/03/19 09:26:53;;;;;;;13.93;9.55;;;;;;;2.84;84.68;99815.52;1700493;83;21406;-69
2021/03/19 09:29:37;;;;;;;13.20;9.18;;;;;;;2.88;84.50;99823.27;1709039;83;21240;-68
2021/03/19 09:32:39;;;;;;;18.12;11.38;;;;;;;2.88;83.79;99821.11;1709855;83;21209;-68
2021/03/19 09:35:38;;;;;;;14.23;8.53;;;;;;;2.86;83.78;99821.56;1706492;83;21185;-68
2021/03/19 09:38:31;;;;;;;15.13;10.63;;;;;;;2.80;84.47;99821.61;1701444;82;21222;-68
2021/03/19 09:41:03;;;;;;;17.10;11.10;;;;;;;2.82;84.61;99825.92;1708597;82;21235;-71
2021/03/19 09:43:45;;;;;;;15.13;9.35;;;;;;;2.88;84.36;99828.91;1665755;85;21728;-67
2021/03/19 09:46:29;;;;;;;18.00;12.00;;;;;;;2.91;84.62;99826.27;1668710;85;21239;-67
2021/03/19 09:49:08;;;;;;;18.17;12.13;;;;;;;2.98;84.77;99832.27;1655913;85;21226;-69
2021/03/19 09:51:46;;;;;;;28.52;16.23;;;;;;;3.03;84.91;99832.63;1655624;85;21635;-69
2021/03/19 09:54:31;;;;;;;19.55;13.30;;;;;;;3.12;84.72;99831.22;1660767;85;21283;-68
2021/03/19 09:57:04;;;;;;;16.27;11.63;;;;;;;3.20;84.49;99828.97;1688586;81;21202;-69
2021/03/19 09:59:36;;;;;;;17.25;11.75;;;;;;;3.23;83.93;99831.55;1708378;82;21230;-68
2021/03/19 10:02:25;;;;;;;14.90;10.48;;;;;;;3.22;83.84;99830.70;1702915;83;21135;-68
2021/03/19 10:05:19;;;;;;;15.13;10.32;;;;;;;3.30;84.18;99826.70;1699723;83;21205;-68
2021/03/19 10:07:59;;;;;;;14.40;10.05;;;;;;;3.41;83.88;99827.42;1713279;81;27066;-68
2021/03/19 10:10:33;;;;;;;18.52;10.25;;;;;;;3.58;83.23;99828.05;1704910;83;21266;-68
2021/03/19 10:13:23;;;;;;;16.45;10.65;;;;;;;3.58;83.23;99828.05;1709388;82;21661;-68
2021/03/19 10:18:45;;;;;;;17.80;11.75;;;;;;;3.53;81.51;99831.16;1680270;85;21670;-69
2021/03/19 10:21:19;;;;;;;16.20;10.45;;;;;;;3.48;81.18;99832.12;1676881;85;22137;-68
2021/03/19 10:23:54;;;;;;;14.63;10.72;;;;;;;3.41;81.20;99831.33;1677718;85;21209;-68
2021/03/19 10:26:40;;;;;;;13.75;9.48;;;;;;;3.42;81.35;99831.73;1677206;85;21245;-68
2021/03/19 10:29:35;;;;;;;14.28;10.30;;;;;;;3.43;81.24;99826.97;1677340;84;21238;-68
2021/03/19 10:32:08;;;;;;;14.00;10.30;;;;;;;3.54;81.64;99834.20;1692319;84;21241;-67
2021/03/19 10:34:48;;;;;;;15.68;10.80;;;;;;;3.67;81.77;99832.73;1679882;85;21369;-68
2021/03/19 10:40:39;;;;;;;15.58;10.53;;;;;;;3.93;81.50;99830.63;1703228;83;25157;-68
2021/03/19 10:43:25;;;;;;;14.50;10.58;;;;;;;4.00;81.63;99835.28;1707612;83;21207;-70
2021/03/19 10:46:00;;;;;;;13.72;10.00;;;;;;;3.99;81.43;99835.73;1718128;82;21162;-70
2021/03/19 10:48:57;;;;;;;14.13;10.40;;;;;;;3.97;80.33;99837.48;1698459;82;21390;-71
2021/03/19 10:52:13;;;;;;;14.28;10.13;;;;;;;3.92;80.26;99834.09;1704244;83;21699;-71
2021/03/19 10:54:43;;;;;;;11.40;8.20;;;;;;;3.87;80.43;99834.61;1708220;83;21213;-70
2021/03/19 10:57:36;;;;;;;12.58;9.25;;;;;;;3.87;80.52;99833.31;1664955;84;21198;-72
2021/03/19 11:00:37;;;;;;;13.85;9.95;;;;;;;3.84;80.65;99826.82;1641792;85;21876;-70
2021/03/19 11:03:07;;;;;;;14.68;8.73;;;;;;;3.84;81.29;99828.13;1698775;83;22857;-70
2021/03/19 11:05:58;;;;;;;11.65;8.75;;;;;;;3.90;81.27;99834.56;1703669;83;21213;-70
2021/03/19 11:08:27;;;;;;;16.45;10.25;;;;;;;3.92;81.80;99830.19;1681307;85;21178;-71
2021/03/19 11:10:55;;;;;;;15.45;10.85;;;;;;;4.01;81.73;99832.25;1704577;83;21194;-69
2021/03/19 11:13:36;;;;;;;16.25;10.40;;;;;;;4.05;81.66;99831.30;1681875;84;21128;-70
2021/03/19 11:16:07;;;;;;;14.57;10.73;;;;;;;4.11;81.39;99831.22;1652069;85;21248;-70
2021/03/19 11:18:39;;;;;;;15.35;10.45;;;;;;;4.17;81.28;99831.13;1689002;83;21466;-70
2021/03/19 11:21:16;;;;;;;12.05;8.60;;;;;;;4.22;80.15;99834.52;1673241;84;21223;-69
2021/03/19 11:23:49;;;;;;;12.70;9.18;;;;;;;4.26;79.83;99836.20;1673806;85;21675;-71
2021/03/19 11:26:30;;;;;;;12.43;8.48;;;;;;;4.32;79.93;99836.08;1699987;83;21295;-70
2021/03/19 11:29:19;;;;;;;11.85;8.60;;;;;;;4.41;79.92;99835.08;1681228;84;22226;-71
2021/03/19 11:32:06;;;;;;;13.43;7.83;;;;;;;4.49;79.92;99836.27;1654687;85;21339;-70
2021/03/19 11:34:56;;;;;;;11.12;8.65;;;;;;;4.56;80.09;99827.00;1683530;84;21206;-69
2021/03/19 11:37:29;;;;;;;11.68;9.25;;;;;;;4.65;79.36;99823.80;1672258;84;21235;-70
2021/03/19 11:40:17;;;;;;;12.98;9.10;;;;;;;4.82;78.66;99823.06;1672731;84;21679;-71
2021/03/19 11:42:51;;;;;;;15.25;10.03;;;;;;;4.88;77.56;99826.88;1698148;83;22138;-70
2021/03/19 11:45:24;;;;;;;13.55;9.20;;;;;;;4.97;77.52;99829.73;1702117;83;21266;-71
2021/03/19 11:48:04;;;;;;;13.08;9.33;;;;;;;5.06;77.30;99825.64;1670755;85;21225;-71
2021/03/19 11:50:36;;;;;;;16.17;9.95;;;;;;;5.09;76.52;99824.30;1698992;83;21545;-71
2021/03/19 11:53:07;;;;;;;14.67;10.03;;;;;;;5.07;75.99;99818.24;1705109;83;21455;-69
2021/03/19 11:55:41;;;;;;;14.83;10.58;;;;;;;5.12;76.05;99820.31;1703073;82;22769;-71
2021/03/19 11:58:13;;;;;;;13.13;9.85;;;;;;;5.23;75.71;99824.88;1726417;82;51481;-71
2021/03/19 12:00:42;;;;;;;15.38;10.88;;;;;;;5.30;75.15;99820.84;1719582;83;21645;-71
2021/03/19 12:03:42;;;;;;;15.35;10.05;;;;;;;5.39;74.77;99821.52;1719500;83;21180;-70
2021/03/19 12:06:13;;;;;;;12.70;8.75;;;;;;;5.44;75.12;99820.11;1720600;83;22149;-70
2021/03/19 12:08:43;;;;;;;16.62;10.72;;;;;;;5.47;74.23;99822.64;1738241;82;21754;-71
2021/03/19 12:11:43;;;;;;;14.55;9.73;;;;;;;5.48;73.72;99824.38;1719564;83;21147;-70
2021/03/19 12:14:25;;;;;;;12.68;9.35;;;;;;;5.49;73.88;99824.78;1683752;83;21166;-68
2021/03/19 12:16:53;;;;;;;13.48;9.93;;;;;;;5.54;73.21;99821.62;1654470;86;21671;-67
2021/03/19 12:19:22;;;;;;;14.40;9.98;;;;;;;5.60;73.16;99826.72;1629560;88;21152;-66
2021/03/19 12:21:50;;;;;;;12.75;8.55;;;;;;;5.67;72.45;99824.39;1660172;85;21309;-67
2021/03/19 12:24:19;;;;;;;12.93;8.28;;;;;;;5.73;72.61;99822.10;1637911;86;21241;-68
2021/03/19 12:26:49;;;;;;;13.75;8.68;;;;;;;5.82;72.42;99819.70;1640916;83;21235;-69
2021/03/19 12:29:33;;;;;;;13.43;9.08;;;;;;;5.88;70.90;99817.81;1704438;82;21171;-69
2021/03/19 12:32:01;;;;;;;13.45;8.78;;;;;;;5.94;70.97;99825.13;1702755;82;21229;-70
2021/03/19 12:34:30;;;;;;;12.75;9.03;;;;;;;6.06;70.04;99825.72;1690490;84;21214;-70
2021/03/19 12:36:58;;;;;;;12.78;9.05;;;;;;;6.24;68.58;99826.20;1701698;84;21195;-71
2021/03/19 12:39:25;;;;;;;11.48;8.65;;;;;;;6.28;66.92;99823.89;1697814;83;21163;-70
2021/03/19 12:41:53;;;;;;;11.97;8.20;;;;;;;6.31;65.87;99826.45;1696723;84;21238;-71